PWSweather.com
Personal Weather Stations
Station Observations
SHAHALMS1
Eftra, Falkenberg, HA

EftraFalkenberg, HA

Lat: 56.85, Lon: 12.65

Elevation: 140

Station Type:

http://hem.passagen.se/risarp101

High Low Average
Temperature 53.1°F11.7°C 27.3°F-2.6°C 41.3°F5.2°C
Dew Point 28.4°F-2.0°C 12.3°F-10.9°C 20.6°F-6.3°C
Winds 12.1 mph 19.5 kmh Calm Calm 4.0 mph E6.4 kmh E
Wind Gusts 25.4 mph40.9 kmh -- 9.0 mph14.5 kmh
Humidity 56% 33% 44%
Pressure 30.63 in1037.3 mb 30.39 in1029.1 mb -
Precipitation 0.00 in0.0 mm - -
Hour Temp Dew Point Humidity Winds Wind Gusts Pressure Precip Precip Rate Daily Precip Total
12:00 AM 34.3°F1.3°C 13.6°F-10.2°C 42% 3.7 mph E6.0 kmh E 9.3 mph15.0 kmh 30.60 in1036.2 mb 0.00 in0.0 mm 0.00 in0.0 mm 0.00 in0.0 mm
12:15 AM 33.8°F1.0°C 13.6°F-10.2°C 43% 3.1 mph E5.0 kmh E 9.7 mph15.6 kmh 30.63 in1037.3 mb 0.00 in0.0 mm 0.00 in0.0 mm 0.00 in0.0 mm
12:30 AM 33.4°F0.8°C 13.3°F-10.4°C 43% 2.8 mph E4.5 kmh E 8.6 mph13.8 kmh 30.60 in1036.2 mb 0.00 in0.0 mm 0.00 in0.0 mm 0.00 in0.0 mm
12:45 AM 33.1°F0.6°C 13.5°F-10.3°C 44% 2.2 mph E3.5 kmh E 8.6 mph13.8 kmh 30.57 in1035.2 mb 0.00 in0.0 mm 0.00 in0.0 mm 0.00 in0.0 mm
01:00 AM 32.5°F0.3°C 13.5°F-10.3°C 45% Calm Calm -- 30.60 in1036.2 mb 0.00 in0.0 mm 0.00 in0.0 mm 0.00 in0.0 mm
01:15 AM 32.0°F0.0°C 13.0°F-10.6°C 45% 0.6 mph E1.0 kmh E 7.2 mph11.6 kmh 30.60 in1036.2 mb 0.00 in0.0 mm 0.00 in0.0 mm 0.00 in0.0 mm
01:30 AM 31.5°F-0.3°C 13.0°F-10.6°C 46% Calm Calm -- 30.63 in1037.3 mb 0.00 in0.0 mm 0.00 in0.0 mm 0.00 in0.0 mm
01:45 AM 31.3°F-0.4°C 13.4°F-10.3°C 47% 1.1 mph E1.8 kmh E 6.8 mph10.9 kmh 30.60 in1036.2 mb 0.00 in0.0 mm 0.00 in0.0 mm 0.00 in0.0 mm
02:00 AM 30.9°F-0.6°C 13.5°F-10.3°C 48% 0.1 mph E0.2 kmh E 4.3 mph6.9 kmh 30.60 in1036.2 mb 0.00 in0.0 mm 0.00 in0.0 mm 0.00 in0.0 mm
02:15 AM 30.6°F-0.8°C 13.2°F-10.4°C 48% Calm Calm -- 30.60 in1036.2 mb 0.00 in0.0 mm 0.00 in0.0 mm 0.00 in0.0 mm
02:30 AM 30.4°F-0.9°C 13.5°F-10.3°C 49% 0.7 mph E1.1 kmh E 5.4 mph8.7 kmh 30.60 in1036.2 mb 0.00 in0.0 mm 0.00 in0.0 mm 0.00 in0.0 mm
02:45 AM 30.2°F-1.0°C 13.3°F-10.4°C 49% 1.3 mph E2.1 kmh E 7.5 mph12.1 kmh 30.60 in1036.2 mb 0.00 in0.0 mm 0.00 in0.0 mm 0.00 in0.0 mm
03:00 AM 29.8°F-1.2°C 13.4°F-10.3°C 50% 1.6 mph E2.6 kmh E 7.5 mph12.1 kmh 30.60 in1036.2 mb 0.00 in0.0 mm 0.00 in0.0 mm 0.00 in0.0 mm
03:15 AM 29.8°F-1.2°C 13.4°F-10.3°C 50% 0.8 mph E1.3 kmh E 8.6 mph13.8 kmh 30.60 in1036.2 mb 0.00 in0.0 mm 0.00 in0.0 mm 0.00 in0.0 mm
03:30 AM 29.3°F-1.5°C 13.4°F-10.3°C 51% Calm Calm -- 30.60 in1036.2 mb 0.00 in0.0 mm 0.00 in0.0 mm 0.00 in0.0 mm
03:45 AM 29.3°F-1.5°C 13.4°F-10.3°C 51% Calm Calm -- 30.60 in1036.2 mb 0.00 in0.0 mm 0.00 in0.0 mm 0.00 in0.0 mm
04:00 AM 28.8°F-1.8°C 12.9°F-10.6°C 51% Calm Calm 1.8 mph2.9 kmh 30.60 in1036.2 mb 0.00 in0.0 mm 0.00 in0.0 mm 0.00 in0.0 mm
04:15 AM 28.8°F-1.8°C 13.3°F-10.4°C 52% Calm Calm -- 30.57 in1035.2 mb 0.00 in0.0 mm 0.00 in0.0 mm 0.00 in0.0 mm
04:30 AM 28.2°F-2.1°C 12.8°F-10.7°C 52% 0.4 mph E0.6 kmh E 4.3 mph6.9 kmh 30.60 in1036.2 mb 0.00 in0.0 mm 0.00 in0.0 mm 0.00 in0.0 mm
04:45 AM 27.7°F-2.4°C 12.3°F-10.9°C 52% Calm Calm -- 30.60 in1036.2 mb 0.00 in0.0 mm 0.00 in0.0 mm 0.00 in0.0 mm
05:01 AM 27.3°F-2.6°C 12.4°F-10.9°C 53% Calm Calm -- 30.60 in1036.2 mb 0.00 in0.0 mm 0.00 in0.0 mm 0.00 in0.0 mm
05:15 AM 27.3°F-2.6°C 12.4°F-10.9°C 53% Calm Calm -- 30.60 in1036.2 mb 0.00 in0.0 mm 0.00 in0.0 mm 0.00 in0.0 mm
05:30 AM 27.7°F-2.4°C 13.2°F-10.4°C 54% Calm Calm -- 30.60 in1036.2 mb 0.00 in0.0 mm 0.00 in0.0 mm 0.00 in0.0 mm
05:45 AM 28.4°F-2.0°C 13.9°F-10.1°C 54% Calm Calm -- 30.57 in1035.2 mb 0.00 in0.0 mm 0.00 in0.0 mm 0.00 in0.0 mm
06:00 AM 29.3°F-1.5°C 15.1°F-9.4°C 55% Calm Calm -- 30.60 in1036.2 mb 0.00 in0.0 mm 0.00 in0.0 mm 0.00 in0.0 mm
06:15 AM 30.2°F-1.0°C 16.0°F-8.9°C 55% Calm Calm -- 30.60 in1036.2 mb 0.00 in0.0 mm 0.00 in0.0 mm 0.00 in0.0 mm
06:30 AM 31.3°F-0.4°C 17.4°F-8.1°C 56% Calm Calm -- 30.60 in1036.2 mb 0.00 in0.0 mm 0.00 in0.0 mm 0.00 in0.0 mm
06:45 AM 32.2°F0.1°C 18.2°F-7.7°C 56% 0.3 mph E0.5 kmh E 5.0 mph8.0 kmh 30.60 in1036.2 mb 0.00 in0.0 mm 0.00 in0.0 mm 0.00 in0.0 mm
07:00 AM 33.3°F0.7°C 19.2°F-7.1°C 56% 0.4 mph E0.6 kmh E 6.4 mph10.3 kmh 30.60 in1036.2 mb 0.00 in0.0 mm 0.00 in0.0 mm 0.00 in0.0 mm
07:15 AM 34.3°F1.3°C 20.3°F-6.5°C 56% Calm Calm -- 30.60 in1036.2 mb 0.00 in0.0 mm 0.00 in0.0 mm 0.00 in0.0 mm
07:30 AM 36.0°F2.2°C 21.3°F-5.9°C 55% 2.5 mph ENE4.0 kmh ENE 8.6 mph13.8 kmh 30.60 in1036.2 mb 0.00 in0.0 mm 0.00 in0.0 mm 0.00 in0.0 mm
07:45 AM 37.4°F3.0°C 22.7°F-5.2°C 55% 5.4 mph NE8.7 kmh NE 10.0 mph16.1 kmh 30.60 in1036.2 mb 0.00 in0.0 mm 0.00 in0.0 mm 0.00 in0.0 mm
08:00 AM 38.5°F3.6°C 23.3°F-4.8°C 54% 5.6 mph NE9.0 kmh NE 12.5 mph20.1 kmh 30.63 in1037.3 mb 0.00 in0.0 mm 0.00 in0.0 mm 0.00 in0.0 mm
08:15 AM 39.7°F4.3°C 24.0°F-4.4°C 53% 6.4 mph ENE10.3 kmh ENE 11.8 mph19.0 kmh 30.60 in1036.2 mb 0.00 in0.0 mm 0.00 in0.0 mm 0.00 in0.0 mm
08:30 AM 40.8°F4.9°C 24.5°F-4.2°C 52% 7.8 mph E12.6 kmh E 12.9 mph20.8 kmh 30.60 in1036.2 mb 0.00 in0.0 mm 0.00 in0.0 mm 0.00 in0.0 mm
08:45 AM 41.5°F5.3°C 24.7°F-4.1°C 51% 6.4 mph ENE10.3 kmh ENE 13.6 mph21.9 kmh 30.60 in1036.2 mb 0.00 in0.0 mm 0.00 in0.0 mm 0.00 in0.0 mm
09:00 AM 42.4°F5.8°C 25.6°F-3.6°C 51% 8.1 mph E13.0 kmh E 15.4 mph24.8 kmh 30.60 in1036.2 mb 0.00 in0.0 mm 0.00 in0.0 mm 0.00 in0.0 mm
09:15 AM 43.3°F6.3°C 25.9°F-3.4°C 50% 6.7 mph E10.8 kmh E 14.3 mph23.0 kmh 30.60 in1036.2 mb 0.00 in0.0 mm 0.00 in0.0 mm 0.00 in0.0 mm
09:30 AM 44.1°F6.7°C 26.1°F-3.3°C 49% 8.2 mph E13.2 kmh E 14.7 mph23.7 kmh 30.60 in1036.2 mb 0.00 in0.0 mm 0.00 in0.0 mm 0.00 in0.0 mm
09:45 AM 44.6°F7.0°C 26.1°F-3.3°C 48% 10.6 mph E17.1 kmh E 20.4 mph32.8 kmh 30.60 in1036.2 mb 0.00 in0.0 mm 0.00 in0.0 mm 0.00 in0.0 mm
10:00 AM 45.3°F7.4°C 26.3°F-3.2°C 47% 9.9 mph E15.9 kmh E 20.0 mph32.2 kmh 30.57 in1035.2 mb 0.00 in0.0 mm 0.00 in0.0 mm 0.00 in0.0 mm
10:15 AM 46.0°F7.8°C 26.4°F-3.1°C 46% 9.3 mph E15.0 kmh E 21.1 mph34.0 kmh 30.57 in1035.2 mb 0.00 in0.0 mm 0.00 in0.0 mm 0.00 in0.0 mm
10:30 AM 46.6°F8.1°C 26.4°F-3.1°C 45% 11.3 mph E18.2 kmh E 20.4 mph32.8 kmh 30.57 in1035.2 mb 0.00 in0.0 mm 0.00 in0.0 mm 0.00 in0.0 mm
10:45 AM 47.1°F8.4°C 26.3°F-3.2°C 44% 7.7 mph E12.4 kmh E 15.4 mph24.8 kmh 30.57 in1035.2 mb 0.00 in0.0 mm 0.00 in0.0 mm 0.00 in0.0 mm
11:00 AM 47.5°F8.6°C 25.5°F-3.6°C 42% 9.9 mph ENE15.9 kmh ENE 22.9 mph36.9 kmh 30.54 in1034.2 mb 0.00 in0.0 mm 0.00 in0.0 mm 0.00 in0.0 mm
11:15 AM 48.2°F9.0°C 26.2°F-3.2°C 42% 9.6 mph E15.4 kmh E 17.5 mph28.2 kmh 30.54 in1034.2 mb 0.00 in0.0 mm 0.00 in0.0 mm 0.00 in0.0 mm
11:30 AM 48.7°F9.3°C 26.1°F-3.3°C 41% 11.1 mph E17.9 kmh E 22.9 mph36.9 kmh 30.54 in1034.2 mb 0.00 in0.0 mm 0.00 in0.0 mm 0.00 in0.0 mm
11:45 AM 49.1°F9.5°C 26.4°F-3.1°C 41% 10.5 mph E16.9 kmh E 17.5 mph28.2 kmh 30.54 in1034.2 mb 0.00 in0.0 mm 0.00 in0.0 mm 0.00 in0.0 mm
12:00 PM 49.3°F9.6°C 26.0°F-3.3°C 40% 8.2 mph E13.2 kmh E 17.2 mph27.7 kmh 30.54 in1034.2 mb 0.00 in0.0 mm 0.00 in0.0 mm 0.00 in0.0 mm
12:15 PM 49.5°F9.7°C 26.1°F-3.3°C 40% 8.2 mph ENE13.2 kmh ENE 15.7 mph25.3 kmh 30.54 in1034.2 mb 0.00 in0.0 mm 0.00 in0.0 mm 0.00 in0.0 mm
12:30 PM 49.6°F9.8°C 25.7°F-3.5°C 39% 7.6 mph NE12.2 kmh NE 14.0 mph22.5 kmh 30.54 in1034.2 mb 0.00 in0.0 mm 0.00 in0.0 mm 0.00 in0.0 mm
12:45 PM 50.4°F10.2°C 26.9°F-2.8°C 40% 7.0 mph ENE11.3 kmh ENE 14.0 mph22.5 kmh 30.51 in1033.2 mb 0.00 in0.0 mm 0.00 in0.0 mm 0.00 in0.0 mm
01:00 PM 51.1°F10.6°C 27.0°F-2.8°C 39% 8.4 mph SE13.5 kmh SE 17.5 mph28.2 kmh 30.51 in1033.2 mb 0.00 in0.0 mm 0.00 in0.0 mm 0.00 in0.0 mm
01:15 PM 51.4°F10.8°C 26.0°F-3.3°C 37% 8.5 mph E13.7 kmh E 18.3 mph29.5 kmh 30.51 in1033.2 mb 0.00 in0.0 mm 0.00 in0.0 mm 0.00 in0.0 mm
01:30 PM 52.0°F11.1°C 26.5°F-3.1°C 37% 7.2 mph E11.6 kmh E 14.3 mph23.0 kmh 30.51 in1033.2 mb 0.00 in0.0 mm 0.00 in0.0 mm 0.00 in0.0 mm
01:45 PM 52.2°F11.2°C 26.0°F-3.3°C 36% 8.8 mph E14.2 kmh E 16.5 mph26.6 kmh 30.48 in1032.2 mb 0.00 in0.0 mm 0.00 in0.0 mm 0.00 in0.0 mm
02:00 PM 52.5°F11.4°C 25.6°F-3.6°C 35% 12.1 mph E19.5 kmh E 23.6 mph38.0 kmh 30.48 in1032.2 mb 0.00 in0.0 mm 0.00 in0.0 mm 0.00 in0.0 mm
02:15 PM 52.9°F11.6°C 25.9°F-3.4°C 35% 10.2 mph E16.4 kmh E 25.4 mph40.9 kmh 30.48 in1032.2 mb 0.00 in0.0 mm 0.00 in0.0 mm 0.00 in0.0 mm
02:30 PM 52.9°F11.6°C 25.2°F-3.8°C 34% 9.2 mph E14.8 kmh E 20.4 mph32.8 kmh 30.45 in1031.2 mb 0.00 in0.0 mm 0.00 in0.0 mm 0.00 in0.0 mm
02:45 PM 52.9°F11.6°C 25.2°F-3.8°C 34% 9.3 mph E15.0 kmh E 17.5 mph28.2 kmh 30.48 in1032.2 mb 0.00 in0.0 mm 0.00 in0.0 mm 0.00 in0.0 mm
03:00 PM 52.9°F11.6°C 24.5°F-4.2°C 33% 6.5 mph ENE10.5 kmh ENE 12.2 mph19.6 kmh 30.48 in1032.2 mb 0.00 in0.0 mm 0.00 in0.0 mm 0.00 in0.0 mm
03:15 PM 52.7°F11.5°C 24.4°F-4.2°C 33% 6.6 mph NNE10.6 kmh NNE 12.2 mph19.6 kmh 30.48 in1032.2 mb 0.00 in0.0 mm 0.00 in0.0 mm 0.00 in0.0 mm
03:30 PM 52.7°F11.5°C 27.1°F-2.7°C 37% 3.8 mph WSW6.1 kmh WSW 9.3 mph15.0 kmh 30.48 in1032.2 mb 0.00 in0.0 mm 0.00 in0.0 mm 0.00 in0.0 mm
03:45 PM 52.5°F11.4°C 27.6°F-2.4°C 38% 4.2 mph W6.8 kmh W 8.6 mph13.8 kmh 30.48 in1032.2 mb 0.00 in0.0 mm 0.00 in0.0 mm 0.00 in0.0 mm
04:00 PM 52.7°F11.5°C 27.8°F-2.3°C 38% 5.3 mph W8.5 kmh W 12.2 mph19.6 kmh 30.48 in1032.2 mb 0.00 in0.0 mm 0.00 in0.0 mm 0.00 in0.0 mm
04:15 PM 52.5°F11.4°C 27.0°F-2.8°C 37% 3.1 mph WNW5.0 kmh WNW 8.6 mph13.8 kmh 30.48 in1032.2 mb 0.00 in0.0 mm 0.00 in0.0 mm 0.00 in0.0 mm
04:30 PM 53.1°F11.7°C 28.1°F-2.2°C 38% 4.3 mph W6.9 kmh W 9.7 mph15.6 kmh 30.45 in1031.2 mb 0.00 in0.0 mm 0.00 in0.0 mm 0.00 in0.0 mm
04:45 PM 53.1°F11.7°C 28.1°F-2.2°C 38% 4.6 mph W7.4 kmh W 10.4 mph16.7 kmh 30.45 in1031.2 mb 0.00 in0.0 mm 0.00 in0.0 mm 0.00 in0.0 mm
05:00 PM 52.9°F11.6°C 27.9°F-2.3°C 38% 1.5 mph W2.4 kmh W 8.9 mph14.3 kmh 30.45 in1031.2 mb 0.00 in0.0 mm 0.00 in0.0 mm 0.00 in0.0 mm
05:15 PM 52.7°F11.5°C 28.4°F-2.0°C 39% 2.0 mph WSW3.2 kmh WSW 6.8 mph10.9 kmh 30.42 in1030.1 mb 0.00 in0.0 mm 0.00 in0.0 mm 0.00 in0.0 mm
05:30 PM 52.3°F11.3°C 26.1°F-3.3°C 36% 3.4 mph E5.5 kmh E 10.0 mph16.1 kmh 30.42 in1030.1 mb 0.00 in0.0 mm 0.00 in0.0 mm 0.00 in0.0 mm
05:45 PM 51.8°F11.0°C 24.3°F-4.3°C 34% 3.1 mph ENE5.0 kmh ENE 10.4 mph16.7 kmh 30.39 in1029.1 mb 0.00 in0.0 mm 0.00 in0.0 mm 0.00 in0.0 mm
06:00 PM 50.9°F10.5°C 23.5°F-4.7°C 34% 5.5 mph ENE8.9 kmh ENE 12.9 mph20.8 kmh 30.42 in1030.1 mb 0.00 in0.0 mm 0.00 in0.0 mm 0.00 in0.0 mm
06:15 PM 50.0°F10.0°C 22.7°F-5.2°C 34% 1.2 mph E1.9 kmh E 8.9 mph14.3 kmh 30.42 in1030.1 mb 0.00 in0.0 mm 0.00 in0.0 mm 0.00 in0.0 mm
06:30 PM 49.3°F9.6°C 22.1°F-5.5°C 34% 1.2 mph E1.9 kmh E 10.7 mph17.2 kmh 30.39 in1029.1 mb 0.00 in0.0 mm 0.00 in0.0 mm 0.00 in0.0 mm
06:45 PM 48.6°F9.2°C 21.4°F-5.9°C 34% 1.2 mph ENE1.9 kmh ENE 9.3 mph15.0 kmh 30.39 in1029.1 mb 0.00 in0.0 mm 0.00 in0.0 mm 0.00 in0.0 mm
07:00 PM 47.5°F8.6°C 20.5°F-6.4°C 34% 0.2 mph ENE0.3 kmh ENE 4.3 mph6.9 kmh 30.42 in1030.1 mb 0.00 in0.0 mm 0.00 in0.0 mm 0.00 in0.0 mm
07:15 PM 46.4°F8.0°C 19.5°F-6.9°C 34% Calm Calm -- 30.39 in1029.1 mb 0.00 in0.0 mm 0.00 in0.0 mm 0.00 in0.0 mm
07:30 PM 45.0°F7.2°C 18.2°F-7.7°C 34% Calm Calm -- 30.42 in1030.1 mb 0.00 in0.0 mm 0.00 in0.0 mm 0.00 in0.0 mm
07:45 PM 43.7°F6.5°C 17.1°F-8.3°C 34% Calm Calm -- 30.42 in1030.1 mb 0.00 in0.0 mm 0.00 in0.0 mm 0.00 in0.0 mm
08:00 PM 42.8°F6.0°C 17.0°F-8.3°C 35% 1.4 mph E2.3 kmh E 6.1 mph9.8 kmh 30.39 in1029.1 mb 0.00 in0.0 mm 0.00 in0.0 mm 0.00 in0.0 mm
08:15 PM 42.3°F5.7°C 16.5°F-8.6°C 35% 1.5 mph E2.4 kmh E 8.6 mph13.8 kmh 30.42 in1030.1 mb 0.00 in0.0 mm 0.00 in0.0 mm 0.00 in0.0 mm
08:30 PM 41.9°F5.5°C 16.2°F-8.8°C 35% 4.6 mph E7.4 kmh E 10.4 mph16.7 kmh 30.42 in1030.1 mb 0.00 in0.0 mm 0.00 in0.0 mm 0.00 in0.0 mm
08:45 PM 41.4°F5.2°C 16.4°F-8.7°C 36% 2.8 mph E4.5 kmh E 11.8 mph19.0 kmh 30.45 in1031.2 mb 0.00 in0.0 mm 0.00 in0.0 mm 0.00 in0.0 mm
09:01 PM 41.2°F5.1°C 18.7°F-7.4°C 40% 6.3 mph E10.1 kmh E 12.2 mph19.6 kmh 30.45 in1031.2 mb 0.00 in0.0 mm 0.00 in0.0 mm 0.00 in0.0 mm
09:15 PM 40.8°F4.9°C 20.0°F-6.7°C 43% 6.9 mph E11.1 kmh E 14.0 mph22.5 kmh 30.45 in1031.2 mb 0.00 in0.0 mm 0.00 in0.0 mm 0.00 in0.0 mm
09:30 PM 40.5°F4.7°C 20.2°F-6.6°C 44% 7.2 mph ESE11.6 kmh ESE 16.5 mph26.6 kmh 30.48 in1032.2 mb 0.00 in0.0 mm 0.00 in0.0 mm 0.00 in0.0 mm
09:45 PM 39.9°F4.4°C 20.3°F-6.5°C 45% 4.5 mph ESE7.2 kmh ESE 13.6 mph21.9 kmh 30.48 in1032.2 mb 0.00 in0.0 mm 0.00 in0.0 mm 0.00 in0.0 mm
10:00 PM 39.4°F4.1°C 20.3°F-6.5°C 46% 2.5 mph ESE4.0 kmh ESE 8.9 mph14.3 kmh 30.48 in1032.2 mb 0.00 in0.0 mm 0.00 in0.0 mm 0.00 in0.0 mm
10:15 PM 38.7°F3.7°C 20.1°F-6.6°C 47% 1.3 mph ESE2.1 kmh ESE 7.9 mph12.7 kmh 30.48 in1032.2 mb 0.00 in0.0 mm 0.00 in0.0 mm 0.00 in0.0 mm
10:30 PM 38.1°F3.4°C 19.6°F-6.9°C 47% 0.8 mph E1.3 kmh E 7.5 mph12.1 kmh 30.51 in1033.2 mb 0.00 in0.0 mm 0.00 in0.0 mm 0.00 in0.0 mm
10:45 PM 37.6°F3.1°C 19.6°F-6.9°C 48% Calm Calm -- 30.45 in1031.2 mb 0.00 in0.0 mm 0.00 in0.0 mm 0.00 in0.0 mm
11:00 PM 36.5°F2.5°C 18.6°F-7.4°C 48% Calm Calm -- 30.51 in1033.2 mb 0.00 in0.0 mm 0.00 in0.0 mm 0.00 in0.0 mm
11:15 PM 35.6°F2.0°C 18.3°F-7.6°C 49% 0.2 mph E0.3 kmh E 3.6 mph5.8 kmh 30.48 in1032.2 mb 0.00 in0.0 mm 0.00 in0.0 mm 0.00 in0.0 mm
11:30 PM 35.2°F1.8°C 18.4°F-7.6°C 50% Calm Calm 1.4 mph2.3 kmh 30.48 in1032.2 mb 0.00 in0.0 mm 0.00 in0.0 mm 0.00 in0.0 mm
11:45 PM 34.7°F1.5°C 17.9°F-7.8°C 50% 0.1 mph ESE0.2 kmh ESE 1.4 mph2.3 kmh 30.48 in1032.2 mb 0.00 in0.0 mm 0.00 in0.0 mm 0.00 in0.0 mm